sensor_id;sensor_type;location;lat;lon;timestamp;P1;durP1;ratioP1;P2;durP2;ratioP2
59880;SDS011;45751;51.380;10.326;2023-03-01T00:01:18;8.95;;;4.25;;
59880;SDS011;45751;51.380;10.326;2023-03-01T00:03:47;13.75;;;7.03;;
59880;SDS011;45751;51.380;10.326;2023-03-01T00:06:15;12.50;;;5.25;;
59880;SDS011;45751;51.380;10.326;2023-03-01T00:08:41;10.25;;;4.68;;
59880;SDS011;45751;51.380;10.326;2023-03-01T00:11:16;11.68;;;5.50;;
59880;SDS011;45751;51.380;10.326;2023-03-01T00:13:49;13.88;;;5.28;;
59880;SDS011;45751;51.380;10.326;2023-03-01T00:16:19;7.70;;;4.18;;
59880;SDS011;45751;51.380;10.326;2023-03-01T00:21:16;8.07;;;3.22;;
59880;SDS011;45751;51.380;10.326;2023-03-01T00:23:46;11.48;;;5.63;;
59880;SDS011;45751;51.380;10.326;2023-03-01T00:26:16;17.20;;;4.75;;
59880;SDS011;45751;51.380;10.326;2023-03-01T00:28:44;11.48;;;4.13;;
59880;SDS011;45751;51.380;10.326;2023-03-01T00:31:13;9.85;;;4.25;;
59880;SDS011;45751;51.380;10.326;2023-03-01T00:33:42;7.93;;;4.07;;
59880;SDS011;45751;51.380;10.326;2023-03-01T00:36:09;9.80;;;4.25;;
59880;SDS011;45751;51.380;10.326;2023-03-01T00:38:38;12.40;;;4.05;;
59880;SDS011;45751;51.380;10.326;2023-03-01T00:41:07;10.63;;;5.10;;
59880;SDS011;45751;51.380;10.326;2023-03-01T00:43:36;10.60;;;5.05;;
59880;SDS011;45751;51.380;10.326;2023-03-01T00:46:05;14.02;;;5.47;;
59880;SDS011;45751;51.380;10.326;2023-03-01T00:48:34;11.03;;;4.43;;
59880;SDS011;45751;51.380;10.326;2023-03-01T00:51:08;10.43;;;4.50;;
59880;SDS011;45751;51.380;10.326;2023-03-01T00:53:36;10.40;;;3.15;;
59880;SDS011;45751;51.380;10.326;2023-03-01T00:56:03;16.30;;;4.13;;
59880;SDS011;45751;51.380;10.326;2023-03-01T00:58:32;8.63;;;4.45;;
59880;SDS011;45751;51.380;10.326;2023-03-01T01:01:00;7.88;;;3.67;;
59880;SDS011;45751;51.380;10.326;2023-03-01T01:03:27;8.20;;;4.95;;
59880;SDS011;45751;51.380;10.326;2023-03-01T01:05:54;9.45;;;4.22;;
59880;SDS011;45751;51.380;10.326;2023-03-01T01:08:21;14.25;;;5.40;;
59880;SDS011;45751;51.380;10.326;2023-03-01T01:10:48;7.43;;;3.63;;
59880;SDS011;45751;51.380;10.326;2023-03-01T01:13:15;5.55;;;2.58;;
59880;SDS011;45751;51.380;10.326;2023-03-01T01:15:41;13.18;;;5.82;;
59880;SDS011;45751;51.380;10.326;2023-03-01T01:18:08;11.90;;;4.18;;
59880;SDS011;45751;51.380;10.326;2023-03-01T01:20:35;11.52;;;5.45;;
59880;SDS011;45751;51.380;10.326;2023-03-01T01:23:04;9.77;;;2.33;;
59880;SDS011;45751;51.380;10.326;2023-03-01T01:25:33;9.02;;;3.83;;
59880;SDS011;45751;51.380;10.326;2023-03-01T01:28:02;11.53;;;4.83;;
59880;SDS011;45751;51.380;10.326;2023-03-01T01:30:29;14.95;;;6.63;;
59880;SDS011;45751;51.380;10.326;2023-03-01T01:32:56;10.27;;;4.90;;
59880;SDS011;45751;51.380;10.326;2023-03-01T01:35:22;10.70;;;4.05;;
59880;SDS011;45751;51.380;10.326;2023-03-01T01:37:49;14.07;;;6.22;;
59880;SDS011;45751;51.380;10.326;2023-03-01T01:40:16;9.88;;;4.85;;
59880;SDS011;45751;51.380;10.326;2023-03-01T01:42:46;8.15;;;4.60;;
59880;SDS011;45751;51.380;10.326;2023-03-01T01:45:30;9.35;;;2.67;;
59880;SDS011;45751;51.380;10.326;2023-03-01T01:48:03;8.10;;;4.25;;
59880;SDS011;45751;51.380;10.326;2023-03-01T01:50:36;7.63;;;3.67;;
59880;SDS011;45751;51.380;10.326;2023-03-01T01:53:10;12.17;;;4.33;;
59880;SDS011;45751;51.380;10.326;2023-03-01T01:55:41;8.65;;;5.80;;
59880;SDS011;45751;51.380;10.326;2023-03-01T01:58:14;9.95;;;4.97;;
59880;SDS011;45751;51.380;10.326;2023-03-01T02:00:45;10.82;;;4.65;;
59880;SDS011;45751;51.380;10.326;2023-03-01T02:03:31;12.13;;;5.47;;
59880;SDS011;45751;51.380;10.326;2023-03-01T02:06:04;8.50;;;3.35;;
59880;SDS011;45751;51.380;10.326;2023-03-01T02:08:37;8.30;;;3.92;;
59880;SDS011;45751;51.380;10.326;2023-03-01T02:11:07;11.68;;;3.60;;
59880;SDS011;45751;51.380;10.326;2023-03-01T02:13:36;9.57;;;3.60;;
59880;SDS011;45751;51.380;10.326;2023-03-01T02:16:05;11.68;;;3.20;;
59880;SDS011;45751;51.380;10.326;2023-03-01T02:18:35;8.38;;;3.33;;
59880;SDS011;45751;51.380;10.326;2023-03-01T02:23:47;9.32;;;2.97;;
59880;SDS011;45751;51.380;10.326;2023-03-01T02:29:01;14.23;;;4.97;;
59880;SDS011;45751;51.380;10.326;2023-03-01T02:31:27;11.80;;;4.53;;
59880;SDS011;45751;51.380;10.326;2023-03-01T02:34:18;8.63;;;3.72;;
59880;SDS011;45751;51.380;10.326;2023-03-01T02:36:56;9.10;;;4.40;;
59880;SDS011;45751;51.380;10.326;2023-03-01T02:39:28;7.18;;;3.35;;
59880;SDS011;45751;51.380;10.326;2023-03-01T02:41:59;6.63;;;3.38;;
59880;SDS011;45751;51.380;10.326;2023-03-01T02:44:28;9.23;;;5.97;;
59880;SDS011;45751;51.380;10.326;2023-03-01T02:46:56;9.65;;;3.95;;
59880;SDS011;45751;51.380;10.326;2023-03-01T02:49:26;10.93;;;4.65;;
59880;SDS011;45751;51.380;10.326;2023-03-01T02:57:26;7.72;;;4.05;;
59880;SDS011;45751;51.380;10.326;2023-03-01T02:59:55;8.25;;;4.38;;
59880;SDS011;45751;51.380;10.326;2023-03-01T03:02:26;11.07;;;5.80;;
59880;SDS011;45751;51.380;10.326;2023-03-01T03:05:11;8.10;;;4.78;;
59880;SDS011;45751;51.380;10.326;2023-03-01T03:07:42;15.18;;;5.50;;
59880;SDS011;45751;51.380;10.326;2023-03-01T03:10:12;13.40;;;4.57;;
59880;SDS011;45751;51.380;10.326;2023-03-01T03:12:49;8.15;;;3.47;;
59880;SDS011;45751;51.380;10.326;2023-03-01T03:15:18;7.82;;;3.75;;
59880;SDS011;45751;51.380;10.326;2023-03-01T03:17:46;12.60;;;5.80;;
59880;SDS011;45751;51.380;10.326;2023-03-01T03:20:14;8.82;;;4.18;;
59880;SDS011;45751;51.380;10.326;2023-03-01T03:22:46;6.03;;;2.15;;
59880;SDS011;45751;51.380;10.326;2023-03-01T03:25:14;11.48;;;4.78;;
59880;SDS011;45751;51.380;10.326;2023-03-01T03:27:42;10.02;;;4.95;;
59880;SDS011;45751;51.380;10.326;2023-03-01T03:30:11;9.73;;;3.35;;
59880;SDS011;45751;51.380;10.326;2023-03-01T03:32:40;14.00;;;4.90;;
59880;SDS011;45751;51.380;10.326;2023-03-01T03:35:23;7.18;;;2.65;;
59880;SDS011;45751;51.380;10.326;2023-03-01T03:37:56;10.50;;;4.35;;
59880;SDS011;45751;51.380;10.326;2023-03-01T03:40:38;11.05;;;3.17;;
59880;SDS011;45751;51.380;10.326;2023-03-01T03:43:07;7.30;;;3.05;;
59880;SDS011;45751;51.380;10.326;2023-03-01T03:45:36;5.93;;;3.78;;
59880;SDS011;45751;51.380;10.326;2023-03-01T03:48:03;9.18;;;4.78;;
59880;SDS011;45751;51.380;10.326;2023-03-01T03:50:31;11.63;;;4.15;;
59880;SDS011;45751;51.380;10.326;2023-03-01T03:53:03;9.80;;;4.00;;
59880;SDS011;45751;51.380;10.326;2023-03-01T03:55:31;5.80;;;3.35;;
59880;SDS011;45751;51.380;10.326;2023-03-01T03:58:01;8.50;;;4.20;;
59880;SDS011;45751;51.380;10.326;2023-03-01T04:00:37;7.40;;;4.03;;
59880;SDS011;45751;51.380;10.326;2023-03-01T04:03:09;6.88;;;3.28;;
59880;SDS011;45751;51.380;10.326;2023-03-01T04:05:38;8.20;;;4.03;;
59880;SDS011;45751;51.380;10.326;2023-03-01T04:08:06;11.23;;;3.72;;
59880;SDS011;45751;51.380;10.326;2023-03-01T04:10:38;14.25;;;4.35;;
59880;SDS011;45751;51.380;10.326;2023-03-01T04:13:08;9.80;;;4.50;;
59880;SDS011;45751;51.380;10.326;2023-03-01T04:15:37;9.07;;;5.07;;
59880;SDS011;45751;51.380;10.326;2023-03-01T04:18:05;8.23;;;3.90;;
59880;SDS011;45751;51.380;10.326;2023-03-01T04:20:34;9.05;;;4.28;;
59880;SDS011;45751;51.380;10.326;2023-03-01T04:23:03;10.15;;;3.80;;
59880;SDS011;45751;51.380;10.326;2023-03-01T04:25:40;8.23;;;4.45;;
59880;SDS011;45751;51.380;10.326;2023-03-01T04:28:09;9.82;;;5.65;;
59880;SDS011;45751;51.380;10.326;2023-03-01T04:30:36;19.38;;;4.72;;
59880;SDS011;45751;51.380;10.326;2023-03-01T04:33:05;9.05;;;4.65;;
59880;SDS011;45751;51.380;10.326;2023-03-01T04:35:33;9.95;;;5.72;;
59880;SDS011;45751;51.380;10.326;2023-03-01T04:38:02;13.35;;;5.82;;
59880;SDS011;45751;51.380;10.326;2023-03-01T04:40:29;9.65;;;4.90;;
59880;SDS011;45751;51.380;10.326;2023-03-01T04:42:56;14.05;;;3.80;;
59880;SDS011;45751;51.380;10.326;2023-03-01T04:45:23;10.18;;;3.80;;
59880;SDS011;45751;51.380;10.326;2023-03-01T04:47:50;13.07;;;4.53;;
59880;SDS011;45751;51.380;10.326;2023-03-01T04:50:20;9.98;;;5.13;;
59880;SDS011;45751;51.380;10.326;2023-03-01T04:52:47;6.80;;;3.22;;
59880;SDS011;45751;51.380;10.326;2023-03-01T04:55:14;5.30;;;2.30;;
59880;SDS011;45751;51.380;10.326;2023-03-01T04:57:41;7.60;;;4.80;;
59880;SDS011;45751;51.380;10.326;2023-03-01T05:00:09;13.82;;;5.45;;
59880;SDS011;45751;51.380;10.326;2023-03-01T05:07:59;16.92;;;4.93;;
59880;SDS011;45751;51.380;10.326;2023-03-01T05:10:28;20.52;;;4.07;;
59880;SDS011;45751;51.380;10.326;2023-03-01T05:12:56;9.80;;;4.03;;
59880;SDS011;45751;51.380;10.326;2023-03-01T05:15:25;7.80;;;4.53;;
59880;SDS011;45751;51.380;10.326;2023-03-01T05:17:53;7.25;;;3.08;;
59880;SDS011;45751;51.380;10.326;2023-03-01T05:20:22;10.20;;;4.32;;
59880;SDS011;45751;51.380;10.326;2023-03-01T05:22:49;10.15;;;3.20;;
59880;SDS011;45751;51.380;10.326;2023-03-01T05:25:17;12.45;;;4.20;;
59880;SDS011;45751;51.380;10.326;2023-03-01T05:27:44;9.80;;;5.65;;
59880;SDS011;45751;51.380;10.326;2023-03-01T05:30:11;10.55;;;5.00;;
59880;SDS011;45751;51.380;10.326;2023-03-01T05:32:42;6.68;;;3.35;;
59880;SDS011;45751;51.380;10.326;2023-03-01T05:35:11;16.38;;;3.85;;
59880;SDS011;45751;51.380;10.326;2023-03-01T05:40:12;6.93;;;2.35;;
59880;SDS011;45751;51.380;10.326;2023-03-01T05:42:44;5.28;;;2.13;;
59880;SDS011;45751;51.380;10.326;2023-03-01T05:45:12;11.60;;;4.90;;
59880;SDS011;45751;51.380;10.326;2023-03-01T05:47:40;8.70;;;4.63;;
59880;SDS011;45751;51.380;10.326;2023-03-01T05:52:38;8.23;;;4.45;;
59880;SDS011;45751;51.380;10.326;2023-03-01T05:55:05;5.35;;;3.28;;
59880;SDS011;45751;51.380;10.326;2023-03-01T05:57:32;5.07;;;2.75;;
59880;SDS011;45751;51.380;10.326;2023-03-01T05:59:59;9.18;;;3.95;;
59880;SDS011;45751;51.380;10.326;2023-03-01T06:02:26;7.95;;;4.40;;
59880;SDS011;45751;51.380;10.326;2023-03-01T06:04:53;8.82;;;4.35;;
59880;SDS011;45751;51.380;10.326;2023-03-01T06:07:20;12.77;;;3.80;;
59880;SDS011;45751;51.380;10.326;2023-03-01T06:09:47;10.30;;;4.53;;
59880;SDS011;45751;51.380;10.326;2023-03-01T06:12:14;7.00;;;2.90;;
59880;SDS011;45751;51.380;10.326;2023-03-01T06:14:41;9.30;;;4.50;;
59880;SDS011;45751;51.380;10.326;2023-03-01T06:17:08;10.38;;;4.65;;
59880;SDS011;45751;51.380;10.326;2023-03-01T06:19:34;9.95;;;4.18;;
59880;SDS011;45751;51.380;10.326;2023-03-01T06:22:01;12.45;;;3.95;;
59880;SDS011;45751;51.380;10.326;2023-03-01T06:24:28;7.10;;;3.65;;
59880;SDS011;45751;51.380;10.326;2023-03-01T06:26:55;17.98;;;5.00;;
59880;SDS011;45751;51.380;10.326;2023-03-01T06:29:22;8.82;;;4.38;;
59880;SDS011;45751;51.380;10.326;2023-03-01T06:31:49;17.13;;;6.65;;
59880;SDS011;45751;51.380;10.326;2023-03-01T06:34:16;10.73;;;5.00;;
59880;SDS011;45751;51.380;10.326;2023-03-01T06:36:43;9.65;;;4.00;;
59880;SDS011;45751;51.380;10.326;2023-03-01T06:39:10;10.30;;;5.50;;
59880;SDS011;45751;51.380;10.326;2023-03-01T06:41:36;6.00;;;2.72;;
59880;SDS011;45751;51.380;10.326;2023-03-01T06:44:03;13.23;;;5.03;;
59880;SDS011;45751;51.380;10.326;2023-03-01T06:46:30;12.95;;;4.53;;
59880;SDS011;45751;51.380;10.326;2023-03-01T06:48:58;11.73;;;6.28;;
59880;SDS011;45751;51.380;10.326;2023-03-01T06:51:25;20.05;;;7.30;;
59880;SDS011;45751;51.380;10.326;2023-03-01T06:53:52;15.45;;;6.95;;
59880;SDS011;45751;51.380;10.326;2023-03-01T06:56:19;11.20;;;5.35;;
59880;SDS011;45751;51.380;10.326;2023-03-01T06:58:46;13.27;;;5.15;;
59880;SDS011;45751;51.380;10.326;2023-03-01T07:01:13;5.60;;;2.85;;
59880;SDS011;45751;51.380;10.326;2023-03-01T07:03:39;12.25;;;6.38;;
59880;SDS011;45751;51.380;10.326;2023-03-01T07:06:06;14.13;;;5.53;;
59880;SDS011;45751;51.380;10.326;2023-03-01T07:08:33;13.02;;;7.57;;
59880;SDS011;45751;51.380;10.326;2023-03-01T07:11:00;50.45;;;18.30;;
59880;SDS011;45751;51.380;10.326;2023-03-01T07:13:28;54.03;;;21.27;;
59880;SDS011;45751;51.380;10.326;2023-03-01T07:15:55;24.80;;;10.15;;
59880;SDS011;45751;51.380;10.326;2023-03-01T07:18:22;14.25;;;5.82;;
59880;SDS011;45751;51.380;10.326;2023-03-01T07:20:49;12.75;;;5.78;;
59880;SDS011;45751;51.380;10.326;2023-03-01T07:23:16;11.07;;;5.93;;
59880;SDS011;45751;51.380;10.326;2023-03-01T07:25:43;11.43;;;5.28;;
59880;SDS011;45751;51.380;10.326;2023-03-01T07:28:10;26.15;;;3.92;;
59880;SDS011;45751;51.380;10.326;2023-03-01T07:30:37;18.13;;;4.85;;
59880;SDS011;45751;51.380;10.326;2023-03-01T07:33:04;32.05;;;10.38;;
59880;SDS011;45751;51.380;10.326;2023-03-01T07:35:31;54.28;;;19.48;;
59880;SDS011;45751;51.380;10.326;2023-03-01T07:37:59;34.58;;;15.60;;
59880;SDS011;45751;51.380;10.326;2023-03-01T07:40:26;22.77;;;9.10;;
59880;SDS011;45751;51.380;10.326;2023-03-01T07:42:56;21.38;;;8.00;;
59880;SDS011;45751;51.380;10.326;2023-03-01T07:45:24;17.85;;;5.20;;
59880;SDS011;45751;51.380;10.326;2023-03-01T07:47:52;7.28;;;3.28;;
59880;SDS011;45751;51.380;10.326;2023-03-01T07:50:20;13.48;;;5.50;;
59880;SDS011;45751;51.380;10.326;2023-03-01T07:52:48;12.32;;;5.40;;
59880;SDS011;45751;51.380;10.326;2023-03-01T07:55:16;16.02;;;4.68;;
59880;SDS011;45751;51.380;10.326;2023-03-01T07:57:43;27.92;;;5.03;;
59880;SDS011;45751;51.380;10.326;2023-03-01T08:00:10;9.38;;;4.55;;
59880;SDS011;45751;51.380;10.326;2023-03-01T08:02:38;15.85;;;7.30;;
59880;SDS011;45751;51.380;10.326;2023-03-01T08:05:06;8.23;;;5.05;;
59880;SDS011;45751;51.380;10.326;2023-03-01T08:07:34;8.52;;;5.13;;
59880;SDS011;45751;51.380;10.326;2023-03-01T08:10:01;20.45;;;6.15;;
59880;SDS011;45751;51.380;10.326;2023-03-01T08:12:28;13.45;;;3.97;;
59880;SDS011;45751;51.380;10.326;2023-03-01T08:14:55;29.75;;;8.20;;
59880;SDS011;45751;51.380;10.326;2023-03-01T08:17:23;28.15;;;11.20;;
59880;SDS011;45751;51.380;10.326;2023-03-01T08:19:50;21.50;;;7.30;;
59880;SDS011;45751;51.380;10.326;2023-03-01T08:22:17;10.35;;;5.05;;
59880;SDS011;45751;51.380;10.326;2023-03-01T08:24:43;15.80;;;4.82;;
59880;SDS011;45751;51.380;10.326;2023-03-01T08:27:10;11.82;;;4.57;;
59880;SDS011;45751;51.380;10.326;2023-03-01T08:29:38;14.77;;;5.07;;
59880;SDS011;45751;51.380;10.326;2023-03-01T08:32:05;9.40;;;3.60;;
59880;SDS011;45751;51.380;10.326;2023-03-01T08:34:32;14.77;;;6.60;;
59880;SDS011;45751;51.380;10.326;2023-03-01T08:37:01;14.15;;;7.57;;
59880;SDS011;45751;51.380;10.326;2023-03-01T08:39:28;17.27;;;6.35;;
59880;SDS011;45751;51.380;10.326;2023-03-01T08:41:55;8.50;;;4.97;;
59880;SDS011;45751;51.380;10.326;2023-03-01T08:44:22;12.85;;;5.82;;
59880;SDS011;45751;51.380;10.326;2023-03-01T08:46:50;18.25;;;8.57;;
59880;SDS011;45751;51.380;10.326;2023-03-01T08:49:19;13.05;;;6.00;;
59880;SDS011;45751;51.380;10.326;2023-03-01T08:51:47;7.55;;;3.40;;
59880;SDS011;45751;51.380;10.326;2023-03-01T08:54:15;6.80;;;3.47;;
59880;SDS011;45751;51.380;10.326;2023-03-01T08:56:44;12.60;;;4.60;;
59880;SDS011;45751;51.380;10.326;2023-03-01T08:59:12;13.10;;;4.28;;
59880;SDS011;45751;51.380;10.326;2023-03-01T09:01:40;10.55;;;4.15;;
59880;SDS011;45751;51.380;10.326;2023-03-01T09:04:09;11.85;;;5.20;;
59880;SDS011;45751;51.380;10.326;2023-03-01T09:06:37;10.15;;;3.08;;
59880;SDS011;45751;51.380;10.326;2023-03-01T09:09:04;9.98;;;4.47;;
59880;SDS011;45751;51.380;10.326;2023-03-01T09:11:32;11.98;;;4.22;;
59880;SDS011;45751;51.380;10.326;2023-03-01T09:13:59;12.73;;;6.15;;
59880;SDS011;45751;51.380;10.326;2023-03-01T09:16:26;17.70;;;6.57;;
59880;SDS011;45751;51.380;10.326;2023-03-01T09:18:54;17.00;;;5.03;;
59880;SDS011;45751;51.380;10.326;2023-03-01T09:21:21;9.15;;;5.15;;
59880;SDS011;45751;51.380;10.326;2023-03-01T09:24:05;18.88;;;5.97;;
59880;SDS011;45751;51.380;10.326;2023-03-01T09:26:41;10.00;;;5.07;;
59880;SDS011;45751;51.380;10.326;2023-03-01T09:29:08;16.83;;;4.97;;
59880;SDS011;45751;51.380;10.326;2023-03-01T09:31:36;8.38;;;4.30;;
59880;SDS011;45751;51.380;10.326;2023-03-01T09:34:02;12.55;;;5.53;;
59880;SDS011;45751;51.380;10.326;2023-03-01T09:36:29;12.45;;;6.30;;
59880;SDS011;45751;51.380;10.326;2023-03-01T09:38:57;12.38;;;4.53;;
59880;SDS011;45751;51.380;10.326;2023-03-01T09:44:20;9.75;;;3.05;;
59880;SDS011;45751;51.380;10.326;2023-03-01T09:46:50;10.93;;;5.68;;
59880;SDS011;45751;51.380;10.326;2023-03-01T09:49:19;17.27;;;6.68;;
59880;SDS011;45751;51.380;10.326;2023-03-01T09:51:59;12.73;;;6.40;;
59880;SDS011;45751;51.380;10.326;2023-03-01T09:54:26;21.90;;;6.53;;
59880;SDS011;45751;51.380;10.326;2023-03-01T09:57:01;18.25;;;8.38;;
59880;SDS011;45751;51.380;10.326;2023-03-01T09:59:52;10.85;;;5.13;;
59880;SDS011;45751;51.380;10.326;2023-03-01T10:02:47;14.20;;;5.28;;
59880;SDS011;45751;51.380;10.326;2023-03-01T10:05:27;16.02;;;5.00;;
59880;SDS011;45751;51.380;10.326;2023-03-01T10:10:36;13.90;;;6.00;;
59880;SDS011;45751;51.380;10.326;2023-03-01T10:16:15;9.52;;;4.25;;
59880;SDS011;45751;51.380;10.326;2023-03-01T10:18:48;15.68;;;5.78;;
59880;SDS011;45751;51.380;10.326;2023-03-01T10:21:21;10.60;;;4.95;;
59880;SDS011;45751;51.380;10.326;2023-03-01T10:23:51;10.05;;;4.75;;
59880;SDS011;45751;51.380;10.326;2023-03-01T10:29:05;13.35;;;3.88;;
59880;SDS011;45751;51.380;10.326;2023-03-01T10:34:12;11.82;;;4.55;;
59880;SDS011;45751;51.380;10.326;2023-03-01T10:36:39;10.43;;;4.05;;
59880;SDS011;45751;51.380;10.326;2023-03-01T10:39:41;13.02;;;5.13;;
59880;SDS011;45751;51.380;10.326;2023-03-01T10:42:05;15.27;;;5.57;;
59880;SDS011;45751;51.380;10.326;2023-03-01T10:44:46;23.70;;;9.68;;
59880;SDS011;45751;51.380;10.326;2023-03-01T10:49:51;20.63;;;7.38;;
59880;SDS011;45751;51.380;10.326;2023-03-01T10:52:31;9.82;;;3.63;;
59880;SDS011;45751;51.380;10.326;2023-03-01T10:55:01;8.80;;;3.88;;
59880;SDS011;45751;51.380;10.326;2023-03-01T10:57:48;11.02;;;3.65;;
59880;SDS011;45751;51.380;10.326;2023-03-01T11:03:01;11.02;;;3.70;;
59880;SDS011;45751;51.380;10.326;2023-03-01T11:05:31;15.05;;;5.15;;
59880;SDS011;45751;51.380;10.326;2023-03-01T11:08:00;9.13;;;4.30;;
59880;SDS011;45751;51.380;10.326;2023-03-01T11:10:30;12.55;;;4.00;;
59880;SDS011;45751;51.380;10.326;2023-03-01T11:15:41;15.32;;;5.28;;
59880;SDS011;45751;51.380;10.326;2023-03-01T11:18:43;13.18;;;4.88;;
59880;SDS011;45751;51.380;10.326;2023-03-01T11:21:15;13.65;;;6.72;;
59880;SDS011;45751;51.380;10.326;2023-03-01T11:23:42;9.93;;;3.92;;
59880;SDS011;45751;51.380;10.326;2023-03-01T11:26:12;10.65;;;4.13;;
59880;SDS011;45751;51.380;10.326;2023-03-01T11:28:41;13.45;;;4.90;;
59880;SDS011;45751;51.380;10.326;2023-03-01T11:31:11;12.07;;;4.35;;
59880;SDS011;45751;51.380;10.326;2023-03-01T11:33:50;8.68;;;3.92;;
59880;SDS011;45751;51.380;10.326;2023-03-01T11:36:32;7.28;;;3.67;;
59880;SDS011;45751;51.380;10.326;2023-03-01T11:39:41;11.02;;;3.17;;
59880;SDS011;45751;51.380;10.326;2023-03-01T11:42:20;11.20;;;4.32;;
59880;SDS011;45751;51.380;10.326;2023-03-01T11:45:10;8.70;;;3.38;;
59880;SDS011;45751;51.380;10.326;2023-03-01T11:50:52;11.93;;;3.75;;
59880;SDS011;45751;51.380;10.326;2023-03-01T12:18:42;13.05;;;3.95;;
59880;SDS011;45751;51.380;10.326;2023-03-01T12:24:21;15.43;;;6.60;;
59880;SDS011;45751;51.380;10.326;2023-03-01T12:33:14;6.93;;;2.83;;
59880;SDS011;45751;51.380;10.326;2023-03-01T12:49:55;11.63;;;4.22;;
59880;SDS011;45751;51.380;10.326;2023-03-01T12:55:33;12.77;;;5.13;;
59880;SDS011;45751;51.380;10.326;2023-03-01T13:00:43;9.38;;;3.67;;
59880;SDS011;45751;51.380;10.326;2023-03-01T13:03:41;9.10;;;3.42;;
59880;SDS011;45751;51.380;10.326;2023-03-01T13:09:28;12.27;;;5.28;;
59880;SDS011;45751;51.380;10.326;2023-03-01T13:15:34;11.95;;;4.00;;
59880;SDS011;45751;51.380;10.326;2023-03-01T13:18:49;8.60;;;3.42;;
59880;SDS011;45751;51.380;10.326;2023-03-01T13:20:52;7.28;;;3.17;;
59880;SDS011;45751;51.380;10.326;2023-03-01T13:28:36;11.15;;;3.35;;
59880;SDS011;45751;51.380;10.326;2023-03-01T13:31:11;7.60;;;3.10;;
59880;SDS011;45751;51.380;10.326;2023-03-01T13:33:58;9.73;;;3.67;;
59880;SDS011;45751;51.380;10.326;2023-03-01T13:54:58;11.77;;;3.80;;
59880;SDS011;45751;51.380;10.326;2023-03-01T13:57:33;9.43;;;3.33;;
59880;SDS011;45751;51.380;10.326;2023-03-01T14:00:03;9.13;;;3.70;;
59880;SDS011;45751;51.380;10.326;2023-03-01T14:02:40;10.07;;;4.03;;
59880;SDS011;45751;51.380;10.326;2023-03-01T14:05:08;10.68;;;3.65;;
59880;SDS011;45751;51.380;10.326;2023-03-01T14:07:38;9.90;;;3.20;;
59880;SDS011;45751;51.380;10.326;2023-03-01T14:10:07;10.95;;;4.00;;
59880;SDS011;45751;51.380;10.326;2023-03-01T14:15:56;7.97;;;2.95;;
59880;SDS011;45751;51.380;10.326;2023-03-01T14:24:52;8.00;;;3.05;;
59880;SDS011;45751;51.380;10.326;2023-03-01T14:27:25;9.45;;;3.88;;
59880;SDS011;45751;51.380;10.326;2023-03-01T14:29:57;12.98;;;5.00;;
59880;SDS011;45751;51.380;10.326;2023-03-01T14:32:30;13.63;;;5.38;;
59880;SDS011;45751;51.380;10.326;2023-03-01T14:34:59;8.30;;;2.97;;
59880;SDS011;45751;51.380;10.326;2023-03-01T14:37:28;9.55;;;3.80;;
59880;SDS011;45751;51.380;10.326;2023-03-01T14:39:58;8.35;;;3.17;;
59880;SDS011;45751;51.380;10.326;2023-03-01T14:42:28;10.75;;;3.78;;
59880;SDS011;45751;51.380;10.326;2023-03-01T14:44:58;9.05;;;3.30;;
59880;SDS011;45751;51.380;10.326;2023-03-01T14:47:28;9.65;;;3.63;;
59880;SDS011;45751;51.380;10.326;2023-03-01T14:53:01;10.15;;;4.15;;
59880;SDS011;45751;51.380;10.326;2023-03-01T14:55:37;9.13;;;4.30;;
59880;SDS011;45751;51.380;10.326;2023-03-01T14:58:10;8.45;;;2.92;;
59880;SDS011;45751;51.380;10.326;2023-03-01T15:03:14;8.40;;;3.38;;
59880;SDS011;45751;51.380;10.326;2023-03-01T15:05:51;8.95;;;3.40;;
59880;SDS011;45751;51.380;10.326;2023-03-01T15:08:20;10.00;;;3.42;;
59880;SDS011;45751;51.380;10.326;2023-03-01T15:11:02;11.70;;;4.20;;
59880;SDS011;45751;51.380;10.326;2023-03-01T15:13:34;10.05;;;3.30;;
59880;SDS011;45751;51.380;10.326;2023-03-01T15:18:38;10.82;;;3.65;;
59880;SDS011;45751;51.380;10.326;2023-03-01T15:21:15;9.65;;;3.70;;
59880;SDS011;45751;51.380;10.326;2023-03-01T15:23:56;12.70;;;3.72;;
59880;SDS011;45751;51.380;10.326;2023-03-01T15:26:39;10.85;;;3.58;;
59880;SDS011;45751;51.380;10.326;2023-03-01T15:29:27;13.05;;;3.95;;
59880;SDS011;45751;51.380;10.326;2023-03-01T15:34:34;9.02;;;3.78;;
59880;SDS011;45751;51.380;10.326;2023-03-01T15:37:05;11.88;;;5.10;;
59880;SDS011;45751;51.380;10.326;2023-03-01T15:39:55;7.60;;;2.75;;
59880;SDS011;45751;51.380;10.326;2023-03-01T15:47:50;11.40;;;4.07;;
59880;SDS011;45751;51.380;10.326;2023-03-01T15:50:29;10.10;;;3.65;;
59880;SDS011;45751;51.380;10.326;2023-03-01T15:53:01;13.10;;;4.45;;
59880;SDS011;45751;51.380;10.326;2023-03-01T15:55:33;10.70;;;3.83;;
59880;SDS011;45751;51.380;10.326;2023-03-01T15:58:00;12.65;;;4.47;;
59880;SDS011;45751;51.380;10.326;2023-03-01T16:00:42;11.40;;;4.47;;
59880;SDS011;45751;51.380;10.326;2023-03-01T16:03:25;10.88;;;3.85;;
59880;SDS011;45751;51.380;10.326;2023-03-01T16:05:52;12.68;;;3.60;;
59880;SDS011;45751;51.380;10.326;2023-03-01T16:08:19;10.48;;;3.13;;
59880;SDS011;45751;51.380;10.326;2023-03-01T16:10:46;9.25;;;3.72;;
59880;SDS011;45751;51.380;10.326;2023-03-01T16:13:16;13.25;;;3.55;;
59880;SDS011;45751;51.380;10.326;2023-03-01T16:15:43;12.45;;;3.63;;
59880;SDS011;45751;51.380;10.326;2023-03-01T16:18:10;11.00;;;4.03;;
59880;SDS011;45751;51.380;10.326;2023-03-01T16:20:38;13.90;;;6.00;;
59880;SDS011;45751;51.380;10.326;2023-03-01T16:23:06;9.25;;;3.80;;
59880;SDS011;45751;51.380;10.326;2023-03-01T16:25:35;9.23;;;3.08;;
59880;SDS011;45751;51.380;10.326;2023-03-01T16:28:02;9.18;;;3.40;;
59880;SDS011;45751;51.380;10.326;2023-03-01T16:30:34;8.25;;;3.35;;
59880;SDS011;45751;51.380;10.326;2023-03-01T16:33:03;9.32;;;3.92;;
59880;SDS011;45751;51.380;10.326;2023-03-01T16:35:49;10.60;;;4.03;;
59880;SDS011;45751;51.380;10.326;2023-03-01T16:38:16;10.20;;;4.18;;
59880;SDS011;45751;51.380;10.326;2023-03-01T16:40:47;10.10;;;3.47;;
59880;SDS011;45751;51.380;10.326;2023-03-01T16:43:15;8.75;;;3.42;;
59880;SDS011;45751;51.380;10.326;2023-03-01T16:45:42;11.00;;;4.00;;
59880;SDS011;45751;51.380;10.326;2023-03-01T16:48:11;11.63;;;4.22;;
59880;SDS011;45751;51.380;10.326;2023-03-01T16:50:39;14.90;;;4.57;;
59880;SDS011;45751;51.380;10.326;2023-03-01T16:53:06;14.77;;;5.13;;
59880;SDS011;45751;51.380;10.326;2023-03-01T16:55:33;11.98;;;4.35;;
59880;SDS011;45751;51.380;10.326;2023-03-01T16:58:00;11.35;;;5.10;;
59880;SDS011;45751;51.380;10.326;2023-03-01T17:00:27;14.82;;;4.28;;
59880;SDS011;45751;51.380;10.326;2023-03-01T17:02:54;10.70;;;3.90;;
59880;SDS011;45751;51.380;10.326;2023-03-01T17:05:22;11.43;;;4.38;;
59880;SDS011;45751;51.380;10.326;2023-03-01T17:07:52;11.20;;;4.65;;
59880;SDS011;45751;51.380;10.326;2023-03-01T17:10:22;9.15;;;3.38;;
59880;SDS011;45751;51.380;10.326;2023-03-01T17:12:49;12.68;;;4.75;;
59880;SDS011;45751;51.380;10.326;2023-03-01T17:15:16;11.52;;;4.07;;
59880;SDS011;45751;51.380;10.326;2023-03-01T17:17:43;9.88;;;3.70;;
59880;SDS011;45751;51.380;10.326;2023-03-01T17:20:10;14.50;;;4.70;;
59880;SDS011;45751;51.380;10.326;2023-03-01T17:22:37;11.27;;;3.90;;
59880;SDS011;45751;51.380;10.326;2023-03-01T17:25:06;12.27;;;4.63;;